Albuquerque International Sunport Airport
KABQ : now visible

Airfield :











YOU CAN JOIN US ON...

 
LOGIN :

Register | Disclaimer

   EN    FR    IT 

 









Legend :    VFR   Marginal VFR   IFR   Intensive IFR   Very Intensive IFR
Visi :
Ceiling :
>= 8 km
>= 3000ft
5 to 8 km
1000 to 3000 ft
1500m to 5 km
500 to 1000 ft
800 to 1500m
200 to 500 ft
< 800m
< 200 ft
Symbols :   Thunderstorms  Fog  Heavy snow  Heavy precipitations  Wind > 20 kt






- Airport Elevation : 5355 ft
- IATA code : ABQ


KABQ - Albuquerque International Sunport

CURRENT METAR :
  • 290352Z COR 12006KT 10SM FEW140 24/M09 A3007 RMK AO2 SLP098 T02391094

EXPIRED METARs :
  • 290252Z 12005KT 10SM FEW130 25/M09 A3005 RMK AO2 SLP093 T02501094 53003
  • 290152Z 14005KT 10SM FEW130 29/M09 A3005 RMK AO2 SLP087 T02941094
  • 290052Z 22007KT 10SM FEW130 31/M09 A3004 RMK AO2 SLP083 T03061094
  • 282352Z 25010KT 10SM SCT130 32/M09 A3004 RMK AO2 SLP090 T03171094 10322 20267 56018

TAF KABQ
Valid from the 29 at 04:00 until the 30 at 00:00 UTC


290417Z 2904/2924 VRB05KT P6SM SKC
FM290530 09024G37KT P6SM FEW040
FM291200 09018G26KT P6SM FEW040
FM291600 15006KT P6SM FEW250
FM292000 22009G16KT P6SM SCT200
KZAB FIR / North America



MET'MAP, your aeronautical weather chart ! - Copyright ORBIFLY December 2007 - Disclaimer

ORBIFLY MET'MAP TEAM :

Programming & Development : Alexandra Zaïnal
Original concept : Baudouin d'Aumeries
Technical & hardware support : Manuel Goepfert
Assistance : Marc-Olivier Méhu




SOURCES & CREDITS :

   NOAA       Earth
Advisory